Midfield, Texas
Current Conditions -  °F | °C
As of 2:53 AM on Saturday 01 Nov 2014 (Local Time) from KPSX Reporting Station
Clear Clear  
Wind Chill: 52°   Ceiling: Unl
Heat Index: 52°   Visibility: 10mi
Dew Point: 45°   Wind: 8mph
Humidity: 77%   Direction: 360°N
Pressure: 30.28"   Gusts: NA
Location:  28.94°N, 96.21°W
Report Text: KPSX 010753Z AUTO 36007KT 10SM CLR 11/07 A3028 RMK AO2 SLP253 T01110072
Loading
Personal Weather Stations






























Interactive Weather Map
Tropical Storm Tracking
New forecast layout! Learn more

10-Day Weather Forecast

Advertisements
Track Severe Weather on mobile